sensor_id;sensor_type;location;lat;lon;timestamp;temperature;humidity
43561;DHT22;32305;46.410;17.394;2023-02-10T00:01:23;19.60;29.40
43561;DHT22;32305;46.410;17.394;2023-02-10T00:03:51;19.60;29.40
43561;DHT22;32305;46.410;17.394;2023-02-10T00:06:20;19.60;29.40
43561;DHT22;32305;46.410;17.394;2023-02-10T00:08:51;19.60;29.40
43561;DHT22;32305;46.410;17.394;2023-02-10T00:11:19;19.60;29.40
43561;DHT22;32305;46.410;17.394;2023-02-10T00:13:46;19.60;29.40
43561;DHT22;32305;46.410;17.394;2023-02-10T00:16:15;19.60;29.40
43561;DHT22;32305;46.410;17.394;2023-02-10T00:18:42;19.60;29.30
43561;DHT22;32305;46.410;17.394;2023-02-10T00:21:13;19.60;29.30
43561;DHT22;32305;46.410;17.394;2023-02-10T00:23:41;19.60;29.30
43561;DHT22;32305;46.410;17.394;2023-02-10T00:26:11;19.60;29.30
43561;DHT22;32305;46.410;17.394;2023-02-10T00:28:38;19.60;29.30
43561;DHT22;32305;46.410;17.394;2023-02-10T00:31:07;19.60;29.30
43561;DHT22;32305;46.410;17.394;2023-02-10T00:33:35;19.60;29.30
43561;DHT22;32305;46.410;17.394;2023-02-10T00:36:06;19.60;29.30
43561;DHT22;32305;46.410;17.394;2023-02-10T00:38:35;19.50;29.30
43561;DHT22;32305;46.410;17.394;2023-02-10T00:41:04;19.50;29.30
43561;DHT22;32305;46.410;17.394;2023-02-10T00:43:32;19.50;29.30
43561;DHT22;32305;46.410;17.394;2023-02-10T00:45:59;19.50;29.30
43561;DHT22;32305;46.410;17.394;2023-02-10T00:48:26;19.50;29.30
43561;DHT22;32305;46.410;17.394;2023-02-10T00:50:53;19.50;29.30
43561;DHT22;32305;46.410;17.394;2023-02-10T00:53:20;19.50;29.70
43561;DHT22;32305;46.410;17.394;2023-02-10T00:55:47;19.50;29.30
43561;DHT22;32305;46.410;17.394;2023-02-10T00:58:15;19.50;29.30
43561;DHT22;32305;46.410;17.394;2023-02-10T01:00:42;19.50;29.30
43561;DHT22;32305;46.410;17.394;2023-02-10T01:03:09;19.50;29.30
43561;DHT22;32305;46.410;17.394;2023-02-10T01:05:37;19.50;29.30
43561;DHT22;32305;46.410;17.394;2023-02-10T01:08:04;19.40;29.20
43561;DHT22;32305;46.410;17.394;2023-02-10T01:10:35;19.40;29.20
43561;DHT22;32305;46.410;17.394;2023-02-10T01:13:03;19.40;29.20
43561;DHT22;32305;46.410;17.394;2023-02-10T01:15:31;19.40;29.30
43561;DHT22;32305;46.410;17.394;2023-02-10T01:17:58;19.40;29.20
43561;DHT22;32305;46.410;17.394;2023-02-10T01:20:26;19.40;29.20
43561;DHT22;32305;46.410;17.394;2023-02-10T01:22:53;19.40;29.20
43561;DHT22;32305;46.410;17.394;2023-02-10T01:25:20;19.40;29.20
43561;DHT22;32305;46.410;17.394;2023-02-10T01:27:47;19.40;29.20
43561;DHT22;32305;46.410;17.394;2023-02-10T01:30:14;19.40;29.20
43561;DHT22;32305;46.410;17.394;2023-02-10T01:32:42;19.40;29.20
43561;DHT22;32305;46.410;17.394;2023-02-10T01:35:09;19.40;29.20
43561;DHT22;32305;46.410;17.394;2023-02-10T01:37:36;19.40;29.20
43561;DHT22;32305;46.410;17.394;2023-02-10T01:40:05;19.40;29.20
43561;DHT22;32305;46.410;17.394;2023-02-10T01:42:32;19.40;29.20
43561;DHT22;32305;46.410;17.394;2023-02-10T01:45:20;19.40;29.20
43561;DHT22;32305;46.410;17.394;2023-02-10T01:47:50;19.40;29.20
43561;DHT22;32305;46.410;17.394;2023-02-10T01:50:20;19.40;29.20
43561;DHT22;32305;46.410;17.394;2023-02-10T01:52:49;19.40;29.20
43561;DHT22;32305;46.410;17.394;2023-02-10T01:55:19;19.40;29.20
43561;DHT22;32305;46.410;17.394;2023-02-10T01:57:46;19.40;29.20
43561;DHT22;32305;46.410;17.394;2023-02-10T02:00:15;19.40;29.20
43561;DHT22;32305;46.410;17.394;2023-02-10T02:02:44;19.40;29.20
43561;DHT22;32305;46.410;17.394;2023-02-10T02:05:33;19.40;29.20
43561;DHT22;32305;46.410;17.394;2023-02-10T02:08:17;19.40;29.20
43561;DHT22;32305;46.410;17.394;2023-02-10T02:11:02;19.40;29.20
43561;DHT22;32305;46.410;17.394;2023-02-10T02:13:57;19.40;29.20
43561;DHT22;32305;46.410;17.394;2023-02-10T02:16:45;19.40;29.10
43561;DHT22;32305;46.410;17.394;2023-02-10T02:22:41;19.40;29.20
43561;DHT22;32305;46.410;17.394;2023-02-10T02:25:37;19.40;29.10
43561;DHT22;32305;46.410;17.394;2023-02-10T02:28:30;19.40;29.10
43561;DHT22;32305;46.410;17.394;2023-02-10T02:34:15;19.40;29.10
43561;DHT22;32305;46.410;17.394;2023-02-10T02:36:57;19.30;29.00
43561;DHT22;32305;46.410;17.394;2023-02-10T02:39:27;19.30;29.00
43561;DHT22;32305;46.410;17.394;2023-02-10T02:42:16;19.30;29.00
43561;DHT22;32305;46.410;17.394;2023-02-10T02:44:47;19.30;29.00
43561;DHT22;32305;46.410;17.394;2023-02-10T02:47:26;19.30;29.00
43561;DHT22;32305;46.410;17.394;2023-02-10T02:53:17;19.30;29.00
43561;DHT22;32305;46.410;17.394;2023-02-10T02:55:57;19.30;29.00
43561;DHT22;32305;46.410;17.394;2023-02-10T02:58:39;19.20;29.00
43561;DHT22;32305;46.410;17.394;2023-02-10T03:01:14;19.30;29.00
43561;DHT22;32305;46.410;17.394;2023-02-10T03:03:42;19.30;29.00
43561;DHT22;32305;46.410;17.394;2023-02-10T03:06:09;19.30;29.00
43561;DHT22;32305;46.410;17.394;2023-02-10T03:08:38;19.20;29.00
43561;DHT22;32305;46.410;17.394;2023-02-10T03:11:07;19.20;28.90
43561;DHT22;32305;46.410;17.394;2023-02-10T03:13:34;19.20;29.00
43561;DHT22;32305;46.410;17.394;2023-02-10T03:16:01;19.30;29.00
43561;DHT22;32305;46.410;17.394;2023-02-10T03:18:30;19.20;28.90
43561;DHT22;32305;46.410;17.394;2023-02-10T03:20:57;19.20;28.90
43561;DHT22;32305;46.410;17.394;2023-02-10T03:23:24;19.20;29.20
43561;DHT22;32305;46.410;17.394;2023-02-10T03:25:51;19.20;28.90
43561;DHT22;32305;46.410;17.394;2023-02-10T03:28:18;19.20;28.90
43561;DHT22;32305;46.410;17.394;2023-02-10T03:30:45;19.20;28.90
43561;DHT22;32305;46.410;17.394;2023-02-10T03:33:17;19.20;28.90
43561;DHT22;32305;46.410;17.394;2023-02-10T03:35:45;19.20;28.90
43561;DHT22;32305;46.410;17.394;2023-02-10T03:38:13;19.20;28.90
43561;DHT22;32305;46.410;17.394;2023-02-10T03:40:41;19.20;28.90
43561;DHT22;32305;46.410;17.394;2023-02-10T03:43:08;19.20;28.90
43561;DHT22;32305;46.410;17.394;2023-02-10T03:45:38;19.20;28.90
43561;DHT22;32305;46.410;17.394;2023-02-10T03:48:05;19.20;28.90
43561;DHT22;32305;46.410;17.394;2023-02-10T03:50:32;19.10;28.90
43561;DHT22;32305;46.410;17.394;2023-02-10T03:52:59;19.20;28.90
43561;DHT22;32305;46.410;17.394;2023-02-10T03:55:26;19.20;28.90
43561;DHT22;32305;46.410;17.394;2023-02-10T03:57:53;19.20;28.90
43561;DHT22;32305;46.410;17.394;2023-02-10T04:00:20;19.20;28.90
43561;DHT22;32305;46.410;17.394;2023-02-10T04:02:48;19.20;28.90
43561;DHT22;32305;46.410;17.394;2023-02-10T04:05:15;19.20;28.90
43561;DHT22;32305;46.410;17.394;2023-02-10T04:07:42;19.20;28.90
43561;DHT22;32305;46.410;17.394;2023-02-10T04:10:09;19.20;28.90
43561;DHT22;32305;46.410;17.394;2023-02-10T04:12:37;19.20;28.90
43561;DHT22;32305;46.410;17.394;2023-02-10T04:15:05;19.20;28.90
43561;DHT22;32305;46.410;17.394;2023-02-10T04:17:33;19.20;28.90
43561;DHT22;32305;46.410;17.394;2023-02-10T04:20:00;19.20;28.90
43561;DHT22;32305;46.410;17.394;2023-02-10T04:22:27;19.20;28.90
43561;DHT22;32305;46.410;17.394;2023-02-10T04:24:54;19.20;28.90
43561;DHT22;32305;46.410;17.394;2023-02-10T04:27:21;19.20;28.90
43561;DHT22;32305;46.410;17.394;2023-02-10T04:29:48;19.20;28.80
43561;DHT22;32305;46.410;17.394;2023-02-10T04:32:15;19.20;28.80
43561;DHT22;32305;46.410;17.394;2023-02-10T04:34:43;19.20;28.80
43561;DHT22;32305;46.410;17.394;2023-02-10T04:37:10;19.20;28.80
43561;DHT22;32305;46.410;17.394;2023-02-10T04:39:37;19.20;28.80
43561;DHT22;32305;46.410;17.394;2023-02-10T04:42:04;19.20;28.70
43561;DHT22;32305;46.410;17.394;2023-02-10T04:44:31;19.20;28.70
43561;DHT22;32305;46.410;17.394;2023-02-10T04:46:58;19.20;28.70
43561;DHT22;32305;46.410;17.394;2023-02-10T04:49:26;19.20;28.80
43561;DHT22;32305;46.410;17.394;2023-02-10T04:51:54;19.10;28.70
43561;DHT22;32305;46.410;17.394;2023-02-10T04:54:21;19.10;28.70
43561;DHT22;32305;46.410;17.394;2023-02-10T04:56:49;19.10;28.70
43561;DHT22;32305;46.410;17.394;2023-02-10T04:59:16;19.10;28.70
43561;DHT22;32305;46.410;17.394;2023-02-10T05:01:43;19.10;28.70
43561;DHT22;32305;46.410;17.394;2023-02-10T05:04:10;19.10;28.70
43561;DHT22;32305;46.410;17.394;2023-02-10T05:06:37;19.10;28.70
43561;DHT22;32305;46.410;17.394;2023-02-10T05:09:05;19.10;28.70
43561;DHT22;32305;46.410;17.394;2023-02-10T05:11:32;19.10;28.70
43561;DHT22;32305;46.410;17.394;2023-02-10T05:13:59;19.10;28.70
43561;DHT22;32305;46.410;17.394;2023-02-10T05:16:26;19.10;28.70
43561;DHT22;32305;46.410;17.394;2023-02-10T05:18:53;19.10;28.70
43561;DHT22;32305;46.410;17.394;2023-02-10T05:21:20;19.10;28.70
43561;DHT22;32305;46.410;17.394;2023-02-10T05:23:48;19.10;28.70
43561;DHT22;32305;46.410;17.394;2023-02-10T05:26:15;19.10;28.70
43561;DHT22;32305;46.410;17.394;2023-02-10T05:28:42;19.10;28.60
43561;DHT22;32305;46.410;17.394;2023-02-10T05:31:09;19.00;28.60
43561;DHT22;32305;46.410;17.394;2023-02-10T05:33:36;19.10;28.70
43561;DHT22;32305;46.410;17.394;2023-02-10T05:36:03;19.00;28.60
43561;DHT22;32305;46.410;17.394;2023-02-10T05:38:32;19.00;28.60
43561;DHT22;32305;46.410;17.394;2023-02-10T05:40:59;19.00;28.40
43561;DHT22;32305;46.410;17.394;2023-02-10T05:43:26;19.00;28.40
43561;DHT22;32305;46.410;17.394;2023-02-10T05:45:53;18.90;28.70
43561;DHT22;32305;46.410;17.394;2023-02-10T05:48:20;18.90;28.30
43561;DHT22;32305;46.410;17.394;2023-02-10T05:50:51;18.80;28.30
43561;DHT22;32305;46.410;17.394;2023-02-10T05:53:18;18.80;28.30
43561;DHT22;32305;46.410;17.394;2023-02-10T05:55:46;18.80;28.40
43561;DHT22;32305;46.410;17.394;2023-02-10T05:58:13;18.80;28.40
43561;DHT22;32305;46.410;17.394;2023-02-10T06:00:40;18.80;28.50
43561;DHT22;32305;46.410;17.394;2023-02-10T06:03:08;18.80;28.50
43561;DHT22;32305;46.410;17.394;2023-02-10T06:05:35;18.70;28.50
43561;DHT22;32305;46.410;17.394;2023-02-10T06:08:02;18.70;28.50
43561;DHT22;32305;46.410;17.394;2023-02-10T06:10:30;18.80;28.60
43561;DHT22;32305;46.410;17.394;2023-02-10T06:12:57;18.80;28.60
43561;DHT22;32305;46.410;17.394;2023-02-10T06:15:24;18.80;28.60
43561;DHT22;32305;46.410;17.394;2023-02-10T06:17:51;18.90;28.60
43561;DHT22;32305;46.410;17.394;2023-02-10T06:20:19;18.90;28.60
43561;DHT22;32305;46.410;17.394;2023-02-10T06:22:46;18.90;28.60
43561;DHT22;32305;46.410;17.394;2023-02-10T06:25:13;18.90;28.60
43561;DHT22;32305;46.410;17.394;2023-02-10T06:27:40;19.00;28.70
43561;DHT22;32305;46.410;17.394;2023-02-10T06:30:08;19.00;28.60
43561;DHT22;32305;46.410;17.394;2023-02-10T06:32:35;19.10;28.70
43561;DHT22;32305;46.410;17.394;2023-02-10T06:35:02;19.20;28.70
43561;DHT22;32305;46.410;17.394;2023-02-10T06:37:30;19.20;28.70
43561;DHT22;32305;46.410;17.394;2023-02-10T06:39:58;19.20;28.90
43561;DHT22;32305;46.410;17.394;2023-02-10T06:42:25;19.30;28.90
43561;DHT22;32305;46.410;17.394;2023-02-10T06:44:52;19.40;28.80
43561;DHT22;32305;46.410;17.394;2023-02-10T06:47:19;19.40;28.80
43561;DHT22;32305;46.410;17.394;2023-02-10T06:49:47;19.40;28.80
43561;DHT22;32305;46.410;17.394;2023-02-10T06:52:14;19.50;28.80
43561;DHT22;32305;46.410;17.394;2023-02-10T06:54:43;19.50;28.80
43561;DHT22;32305;46.410;17.394;2023-02-10T06:57:11;19.60;28.80
43561;DHT22;32305;46.410;17.394;2023-02-10T06:59:38;19.60;28.90
43561;DHT22;32305;46.410;17.394;2023-02-10T07:02:07;19.60;29.20
43561;DHT22;32305;46.410;17.394;2023-02-10T07:04:36;19.70;29.20
43561;DHT22;32305;46.410;17.394;2023-02-10T07:07:04;19.70;29.70
43561;DHT22;32305;46.410;17.394;2023-02-10T07:09:32;19.80;30.00
43561;DHT22;32305;46.410;17.394;2023-02-10T07:11:59;19.90;30.30
43561;DHT22;32305;46.410;17.394;2023-02-10T07:14:26;19.90;30.50
43561;DHT22;32305;46.410;17.394;2023-02-10T07:16:53;20.00;30.60
43561;DHT22;32305;46.410;17.394;2023-02-10T07:19:20;20.00;30.60
43561;DHT22;32305;46.410;17.394;2023-02-10T07:21:48;20.10;30.80
43561;DHT22;32305;46.410;17.394;2023-02-10T07:24:15;20.10;30.90
43561;DHT22;32305;46.410;17.394;2023-02-10T07:26:42;20.20;30.70
43561;DHT22;32305;46.410;17.394;2023-02-10T07:29:10;20.20;30.50
43561;DHT22;32305;46.410;17.394;2023-02-10T07:31:38;20.30;30.50
43561;DHT22;32305;46.410;17.394;2023-02-10T07:34:07;20.30;30.40
43561;DHT22;32305;46.410;17.394;2023-02-10T07:36:36;20.40;30.50
43561;DHT22;32305;46.410;17.394;2023-02-10T07:39:03;20.40;30.50
43561;DHT22;32305;46.410;17.394;2023-02-10T07:41:30;20.50;30.40
43561;DHT22;32305;46.410;17.394;2023-02-10T07:43:57;20.50;30.60
43561;DHT22;32305;46.410;17.394;2023-02-10T07:46:24;20.60;30.80
43561;DHT22;32305;46.410;17.394;2023-02-10T07:48:53;20.60;30.70
43561;DHT22;32305;46.410;17.394;2023-02-10T07:51:20;20.60;30.10
43561;DHT22;32305;46.410;17.394;2023-02-10T07:53:47;20.70;30.00
43561;DHT22;32305;46.410;17.394;2023-02-10T07:56:14;20.70;29.70
43561;DHT22;32305;46.410;17.394;2023-02-10T07:58:41;20.80;29.60
43561;DHT22;32305;46.410;17.394;2023-02-10T08:01:10;20.80;29.70
43561;DHT22;32305;46.410;17.394;2023-02-10T08:03:37;20.80;29.70
43561;DHT22;32305;46.410;17.394;2023-02-10T08:06:05;20.90;29.70
43561;DHT22;32305;46.410;17.394;2023-02-10T08:08:33;20.90;29.60
43561;DHT22;32305;46.410;17.394;2023-02-10T08:11:04;21.00;29.50
43561;DHT22;32305;46.410;17.394;2023-02-10T08:13:32;21.00;29.30
43561;DHT22;32305;46.410;17.394;2023-02-10T08:16:03;21.00;29.20
43561;DHT22;32305;46.410;17.394;2023-02-10T08:18:32;21.00;29.20
43561;DHT22;32305;46.410;17.394;2023-02-10T08:21:00;21.00;29.20
43561;DHT22;32305;46.410;17.394;2023-02-10T08:23:27;21.10;29.30
43561;DHT22;32305;46.410;17.394;2023-02-10T08:25:54;21.10;29.40
43561;DHT22;32305;46.410;17.394;2023-02-10T08:28:21;21.20;29.50
43561;DHT22;32305;46.410;17.394;2023-02-10T08:30:49;21.20;29.90
43561;DHT22;32305;46.410;17.394;2023-02-10T08:33:17;21.20;29.50
43561;DHT22;32305;46.410;17.394;2023-02-10T08:35:44;21.30;29.60
43561;DHT22;32305;46.410;17.394;2023-02-10T08:38:11;21.30;29.60
43561;DHT22;32305;46.410;17.394;2023-02-10T08:40:39;21.30;29.60
43561;DHT22;32305;46.410;17.394;2023-02-10T08:43:06;21.40;29.60
43561;DHT22;32305;46.410;17.394;2023-02-10T08:45:34;21.40;29.60
43561;DHT22;32305;46.410;17.394;2023-02-10T08:48:04;21.50;29.50
43561;DHT22;32305;46.410;17.394;2023-02-10T08:50:31;21.50;29.60
43561;DHT22;32305;46.410;17.394;2023-02-10T08:52:58;21.50;29.50
43561;DHT22;32305;46.410;17.394;2023-02-10T08:55:25;21.60;29.40
43561;DHT22;32305;46.410;17.394;2023-02-10T08:57:54;21.60;29.40
43561;DHT22;32305;46.410;17.394;2023-02-10T09:00:21;21.60;29.40
43561;DHT22;32305;46.410;17.394;2023-02-10T09:02:51;21.70;29.40
43561;DHT22;32305;46.410;17.394;2023-02-10T09:05:21;21.70;29.40
43561;DHT22;32305;46.410;17.394;2023-02-10T09:07:48;21.70;29.30
43561;DHT22;32305;46.410;17.394;2023-02-10T09:10:16;21.80;29.40
43561;DHT22;32305;46.410;17.394;2023-02-10T09:12:43;21.80;29.50
43561;DHT22;32305;46.410;17.394;2023-02-10T09:15:11;21.80;29.60
43561;DHT22;32305;46.410;17.394;2023-02-10T09:17:38;21.90;29.60
43561;DHT22;32305;46.410;17.394;2023-02-10T09:20:07;21.90;29.40
43561;DHT22;32305;46.410;17.394;2023-02-10T09:22:34;21.90;29.30
43561;DHT22;32305;46.410;17.394;2023-02-10T09:25:01;22.00;29.40
43561;DHT22;32305;46.410;17.394;2023-02-10T09:27:28;21.90;29.20
43561;DHT22;32305;46.410;17.394;2023-02-10T09:29:56;22.00;29.10
43561;DHT22;32305;46.410;17.394;2023-02-10T09:32:23;22.00;29.10
43561;DHT22;32305;46.410;17.394;2023-02-10T09:34:51;22.00;29.10
43561;DHT22;32305;46.410;17.394;2023-02-10T09:37:18;22.10;29.10
43561;DHT22;32305;46.410;17.394;2023-02-10T09:39:45;22.10;29.00
43561;DHT22;32305;46.410;17.394;2023-02-10T09:42:49;22.10;29.10
43561;DHT22;32305;46.410;17.394;2023-02-10T09:45:24;22.20;29.00
43561;DHT22;32305;46.410;17.394;2023-02-10T09:51:04;22.20;28.80
43561;DHT22;32305;46.410;17.394;2023-02-10T09:53:33;22.30;28.90
43561;DHT22;32305;46.410;17.394;2023-02-10T09:56:05;22.30;28.80
43561;DHT22;32305;46.410;17.394;2023-02-10T09:58:48;22.30;28.60
43561;DHT22;32305;46.410;17.394;2023-02-10T10:01:25;22.30;28.50
43561;DHT22;32305;46.410;17.394;2023-02-10T10:04:00;22.30;28.50
43561;DHT22;32305;46.410;17.394;2023-02-10T10:06:30;22.40;28.40
43561;DHT22;32305;46.410;17.394;2023-02-10T10:09:21;22.40;28.30
43561;DHT22;32305;46.410;17.394;2023-02-10T10:11:54;22.50;28.30
43561;DHT22;32305;46.410;17.394;2023-02-10T10:14:38;22.50;28.20
43561;DHT22;32305;46.410;17.394;2023-02-10T10:20:36;22.50;28.20
43561;DHT22;32305;46.410;17.394;2023-02-10T10:23:26;22.60;28.20
43561;DHT22;32305;46.410;17.394;2023-02-10T10:29:20;22.60;28.10
43561;DHT22;32305;46.410;17.394;2023-02-10T10:32:01;22.70;28.10
43561;DHT22;32305;46.410;17.394;2023-02-10T10:34:37;22.70;28.00
43561;DHT22;32305;46.410;17.394;2023-02-10T10:37:14;22.70;28.20
43561;DHT22;32305;46.410;17.394;2023-02-10T10:39:45;22.70;27.90
43561;DHT22;32305;46.410;17.394;2023-02-10T10:42:22;22.80;27.90
43561;DHT22;32305;46.410;17.394;2023-02-10T10:45:00;22.80;27.90
43561;DHT22;32305;46.410;17.394;2023-02-10T10:47:42;22.80;27.80
43561;DHT22;32305;46.410;17.394;2023-02-10T10:50:15;22.80;27.80
43561;DHT22;32305;46.410;17.394;2023-02-10T10:52:44;22.90;27.80
43561;DHT22;32305;46.410;17.394;2023-02-10T10:55:35;22.90;27.70
43561;DHT22;32305;46.410;17.394;2023-02-10T10:58:25;22.90;27.60
43561;DHT22;32305;46.410;17.394;2023-02-10T11:00:54;23.00;27.70
43561;DHT22;32305;46.410;17.394;2023-02-10T11:03:22;22.90;27.60
43561;DHT22;32305;46.410;17.394;2023-02-10T11:06:06;23.00;27.60
43561;DHT22;32305;46.410;17.394;2023-02-10T11:08:43;23.00;27.70
43561;DHT22;32305;46.410;17.394;2023-02-10T11:11:13;23.00;27.70
43561;DHT22;32305;46.410;17.394;2023-02-10T11:13:57;23.00;27.70
43561;DHT22;32305;46.410;17.394;2023-02-10T11:16:24;23.00;27.60
43561;DHT22;32305;46.410;17.394;2023-02-10T11:18:58;23.10;27.60
43561;DHT22;32305;46.410;17.394;2023-02-10T11:21:35;23.10;27.50
43561;DHT22;32305;46.410;17.394;2023-02-10T11:24:26;23.10;27.50
43561;DHT22;32305;46.410;17.394;2023-02-10T11:26:56;23.10;27.40
43561;DHT22;32305;46.410;17.394;2023-02-10T11:29:25;23.10;27.30
43561;DHT22;32305;46.410;17.394;2023-02-10T11:31:55;23.10;27.30
43561;DHT22;32305;46.410;17.394;2023-02-10T11:34:39;23.10;27.20
43561;DHT22;32305;46.410;17.394;2023-02-10T11:37:30;23.10;27.20
43561;DHT22;32305;46.410;17.394;2023-02-10T11:40:00;23.10;27.10
43561;DHT22;32305;46.410;17.394;2023-02-10T11:42:32;23.20;27.10
43561;DHT22;32305;46.410;17.394;2023-02-10T11:45:16;23.10;27.10
43561;DHT22;32305;46.410;17.394;2023-02-10T11:47:44;23.10;27.00
43561;DHT22;32305;46.410;17.394;2023-02-10T11:50:22;23.20;27.10
43561;DHT22;32305;46.410;17.394;2023-02-10T11:52:50;23.20;27.20
43561;DHT22;32305;46.410;17.394;2023-02-10T11:55:17;23.30;27.10
43561;DHT22;32305;46.410;17.394;2023-02-10T11:57:58;23.30;27.10
43561;DHT22;32305;46.410;17.394;2023-02-10T12:01:09;23.30;27.00
43561;DHT22;32305;46.410;17.394;2023-02-10T12:03:56;23.30;26.90
43561;DHT22;32305;46.410;17.394;2023-02-10T12:06:36;23.40;26.90
43561;DHT22;32305;46.410;17.394;2023-02-10T12:09:31;23.40;26.80
43561;DHT22;32305;46.410;17.394;2023-02-10T12:12:11;23.40;26.70
43561;DHT22;32305;46.410;17.394;2023-02-10T12:15:07;23.40;26.70
43561;DHT22;32305;46.410;17.394;2023-02-10T12:18:11;23.40;26.70
43561;DHT22;32305;46.410;17.394;2023-02-10T12:24:01;23.50;26.70
43561;DHT22;32305;46.410;17.394;2023-02-10T12:26:50;23.50;27.10
43561;DHT22;32305;46.410;17.394;2023-02-10T12:29:39;23.50;26.70
43561;DHT22;32305;46.410;17.394;2023-02-10T12:32:34;23.50;26.60
43561;DHT22;32305;46.410;17.394;2023-02-10T12:35:20;23.60;26.60
43561;DHT22;32305;46.410;17.394;2023-02-10T12:41:11;23.60;26.60
43561;DHT22;32305;46.410;17.394;2023-02-10T12:44:05;23.60;26.50
43561;DHT22;32305;46.410;17.394;2023-02-10T12:47:00;23.70;26.60
43561;DHT22;32305;46.410;17.394;2023-02-10T12:52:41;23.70;26.80
43561;DHT22;32305;46.410;17.394;2023-02-10T12:55:19;23.70;26.80
43561;DHT22;32305;46.410;17.394;2023-02-10T12:58:09;23.70;26.80
43561;DHT22;32305;46.410;17.394;2023-02-10T13:00:45;23.70;26.70
43561;DHT22;32305;46.410;17.394;2023-02-10T13:03:28;23.70;26.60
43561;DHT22;32305;46.410;17.394;2023-02-10T13:09:35;23.80;26.70
43561;DHT22;32305;46.410;17.394;2023-02-10T13:12:25;23.80;26.60
43561;DHT22;32305;46.410;17.394;2023-02-10T13:15:05;23.80;26.50
43561;DHT22;32305;46.410;17.394;2023-02-10T13:17:40;23.70;26.40
43561;DHT22;32305;46.410;17.394;2023-02-10T13:26:31;23.80;26.30
43561;DHT22;32305;46.410;17.394;2023-02-10T13:32:20;23.80;26.30
43561;DHT22;32305;46.410;17.394;2023-02-10T13:34:54;23.80;26.30
43561;DHT22;32305;46.410;17.394;2023-02-10T13:37:40;23.80;26.30
43561;DHT22;32305;46.410;17.394;2023-02-10T13:40:23;23.80;26.30
43561;DHT22;32305;46.410;17.394;2023-02-10T13:42:55;23.80;26.40
43561;DHT22;32305;46.410;17.394;2023-02-10T13:45:26;23.80;26.90
43561;DHT22;32305;46.410;17.394;2023-02-10T13:47:54;23.80;26.50
43561;DHT22;32305;46.410;17.394;2023-02-10T13:50:29;23.80;26.70
43561;DHT22;32305;46.410;17.394;2023-02-10T13:52:59;23.80;26.80
43561;DHT22;32305;46.410;17.394;2023-02-10T13:55:38;23.70;26.90
43561;DHT22;32305;46.410;17.394;2023-02-10T13:58:25;23.70;27.00
43561;DHT22;32305;46.410;17.394;2023-02-10T14:00:54;23.70;27.00
43561;DHT22;32305;46.410;17.394;2023-02-10T14:03:29;23.70;27.10
43561;DHT22;32305;46.410;17.394;2023-02-10T14:06:03;23.70;27.10
43561;DHT22;32305;46.410;17.394;2023-02-10T14:08:40;23.70;27.10
43561;DHT22;32305;46.410;17.394;2023-02-10T14:11:41;23.70;27.00
43561;DHT22;32305;46.410;17.394;2023-02-10T14:14:19;23.70;27.00
43561;DHT22;32305;46.410;17.394;2023-02-10T14:16:49;23.60;26.90
43561;DHT22;32305;46.410;17.394;2023-02-10T14:19:33;23.60;26.90
43561;DHT22;32305;46.410;17.394;2023-02-10T14:22:02;23.60;27.20
43561;DHT22;32305;46.410;17.394;2023-02-10T14:24:35;23.60;27.60
43561;DHT22;32305;46.410;17.394;2023-02-10T14:27:18;23.70;28.10
43561;DHT22;32305;46.410;17.394;2023-02-10T14:29:54;23.60;28.40
43561;DHT22;32305;46.410;17.394;2023-02-10T14:32:22;23.60;28.70
43561;DHT22;32305;46.410;17.394;2023-02-10T14:34:59;23.60;28.70
43561;DHT22;32305;46.410;17.394;2023-02-10T14:37:27;23.60;28.50
43561;DHT22;32305;46.410;17.394;2023-02-10T14:39:59;23.60;28.40
43561;DHT22;32305;46.410;17.394;2023-02-10T14:42:29;23.60;28.20
43561;DHT22;32305;46.410;17.394;2023-02-10T14:44:59;23.60;28.10
43561;DHT22;32305;46.410;17.394;2023-02-10T14:47:36;23.60;27.90
43561;DHT22;32305;46.410;17.394;2023-02-10T14:50:05;23.50;27.70
43561;DHT22;32305;46.410;17.394;2023-02-10T14:52:35;23.60;27.60
43561;DHT22;32305;46.410;17.394;2023-02-10T14:55:27;23.50;27.30
43561;DHT22;32305;46.410;17.394;2023-02-10T14:58:09;23.50;27.10
43561;DHT22;32305;46.410;17.394;2023-02-10T15:00:39;23.50;27.00
43561;DHT22;32305;46.410;17.394;2023-02-10T15:03:10;23.50;26.90
43561;DHT22;32305;46.410;17.394;2023-02-10T15:05:46;23.50;26.90
43561;DHT22;32305;46.410;17.394;2023-02-10T15:08:21;23.50;27.20
43561;DHT22;32305;46.410;17.394;2023-02-10T15:10:53;23.50;27.30
43561;DHT22;32305;46.410;17.394;2023-02-10T15:13:33;23.50;27.40
43561;DHT22;32305;46.410;17.394;2023-02-10T15:16:02;23.40;27.50
43561;DHT22;32305;46.410;17.394;2023-02-10T15:18:32;23.40;27.70
43561;DHT22;32305;46.410;17.394;2023-02-10T15:21:04;23.40;27.90
43561;DHT22;32305;46.410;17.394;2023-02-10T15:23:31;23.40;28.00
43561;DHT22;32305;46.410;17.394;2023-02-10T15:26:04;23.30;28.00
43561;DHT22;32305;46.410;17.394;2023-02-10T15:28:32;23.30;28.10
43561;DHT22;32305;46.410;17.394;2023-02-10T15:31:24;23.30;28.10
43561;DHT22;32305;46.410;17.394;2023-02-10T15:33:57;23.20;28.20
43561;DHT22;32305;46.410;17.394;2023-02-10T15:36:32;23.20;28.30
43561;DHT22;32305;46.410;17.394;2023-02-10T15:39:13;23.10;28.20
43561;DHT22;32305;46.410;17.394;2023-02-10T15:44:45;23.00;28.20
43561;DHT22;32305;46.410;17.394;2023-02-10T15:47:22;22.90;28.30
43561;DHT22;32305;46.410;17.394;2023-02-10T15:49:57;22.90;28.30
43561;DHT22;32305;46.410;17.394;2023-02-10T15:52:30;22.80;28.30
43561;DHT22;32305;46.410;17.394;2023-02-10T15:55:40;22.70;28.30
43561;DHT22;32305;46.410;17.394;2023-02-10T15:57:54;22.70;28.30
43561;DHT22;32305;46.410;17.394;2023-02-10T16:00:31;22.60;28.30
43561;DHT22;32305;46.410;17.394;2023-02-10T16:02:58;22.60;28.40
43561;DHT22;32305;46.410;17.394;2023-02-10T16:05:28;22.50;28.40
43561;DHT22;32305;46.410;17.394;2023-02-10T16:08:02;22.50;28.40
43561;DHT22;32305;46.410;17.394;2023-02-10T16:10:32;22.40;28.40
43561;DHT22;32305;46.410;17.394;2023-02-10T16:12:59;22.30;28.40
43561;DHT22;32305;46.410;17.394;2023-02-10T16:15:27;22.40;28.50
43561;DHT22;32305;46.410;17.394;2023-02-10T16:17:57;22.30;28.50
43561;DHT22;32305;46.410;17.394;2023-02-10T16:20:27;22.20;28.40
43561;DHT22;32305;46.410;17.394;2023-02-10T16:22:55;22.20;28.40
43561;DHT22;32305;46.410;17.394;2023-02-10T16:25:24;22.20;28.40
43561;DHT22;32305;46.410;17.394;2023-02-10T16:27:52;22.10;28.40
43561;DHT22;32305;46.410;17.394;2023-02-10T16:30:22;22.10;28.40